Wausau, WI (54401)

7:45 AM CST on February 14, 2016 (GMT -0600)
Thomas Jefferson Elementary, Across the Street | | Change Station
CLOSE
Current Station
Personal Weather Station
Location: Wausau, WI
Elevation: 1276 ft
Nearby Weather Stations
Active Advisory: Special Statement

Elev 1276 ft 44.98 °N, 89.64 °W | Updated 6 minutes ago

Clear
Clear
-8.1 °F
Feels Like -8 °F
N
1.7
Wind Variable Wind from NNW

Today
High -- | Low -- °F
--% Chance of Precip.
Yesterday
High -- | Low -- °F
Precip. -- in
Pressure 30.36 in
Visibility -9999.0 miles
Clouds Clear
Windchill -8 °F
Dew Point -12 °F
Humidity 84%
Rainfall 0.00 in
Snow Depth Not available.
7:01 AM 5:24 PM
Waxing Crescent, 42% visible
METAR KAUW 141254Z AUTO 12004KT CLR M24/M27 A3023 RMK AO2 SLP279 T12391272
Pressure 30.36 in
Visibility -9999.0 miles
Clouds Clear
Windchill -8 °F
Dew Point -12 °F
Humidity 84%
Rainfall 0.00 in
Snow Depth Not available.
7:01 AM 5:24 PM
Waxing Crescent, 42% visible
METAR KAUW 141254Z AUTO 12004KT CLR M24/M27 A3023 RMK AO2 SLP279 T12391272

10-Day Weather Forecast

Almanac

Astronomy

Feb. 14, 2016 Rise Set
Actual Time
Civil Twilight
Nautical Twilight
Astronomical Twilight
Moon
Length of Visible Light
Length of Day
Tomorrow will be .
, % of the Moon is Illuminated

Today's Extremes

State Highs State Lows

Community

WunderPhotos

Upload Photos

1,892,793 photos uploaded!

WunderBlog® & News

Nearby

Air Quality

  Air Quality AQ Index Pollutant
Not available.

Snow Depth

Station Depth Elevation

Earthquake Activity

City Distance Mag. Time & Date
Minimum magnitude displayed is 2.5.

Coastal Water Temperatures

Place Temperature

Stations

Nearby Weather Stations

Station Location Temp. Windchill Dew Point Humidity Wind Precip. Elev Updated Type
                   

Watches & Warnings

Special Statement
Issued: 4:18 AM CST Feb. 14, 2016 – National Weather Service

... Accumulating snow arriving this afternoon and tonight...

Light snow will develop across the region this afternoon and
early evening... then continue through the overnight hours.
Most places will receive 1 to 2 inches of snow... with local
higher amounts.

Snow covered roads and reduced visibilities will result in
locally hazardous travel conditions later today into tonight...
so those with travel plans should adjust them accordingly.



418 am CST sun Feb 14 2016

... Accumulating snow arriving this afternoon and tonight...

Light snow will develop across the region this afternoon and
early evening... then continue through the overnight hours.
Most places will receive 1 to 2 inches of snow... with local
higher amounts.

Snow covered roads and reduced visibilities will result in
locally hazardous travel conditions later today into tonight...
so those with travel plans should adjust them accordingly.